This is the latest recevied weather packets stored in our database for station/object KB1WCR. If no packets are shown the sender has not sent any weather packets the latest 1 day(s).
| Time | Temp. | Humidity | Pressure | Rain* | Wind** | Luminosity | Snow |
|---|---|---|---|---|---|---|---|
| 1836274778 | 11.11° C | 71% | 1020.8 hPa | 0 mm | 0 m/s | 0 W/m² | - |
| 1836274476 | 11.11° C | 70% | 1020.9 hPa | 0 mm | 0 m/s | 0 W/m² | - |
| 1836274331 | 10.56° C | 72% | 1021 hPa | 0 mm | 0 m/s | 0 W/m² | - |
| 1836274174 | 11.67° C | 69% | 1020.7 hPa | 0 mm | 0 m/s | 0 W/m² | - |
| 1836273869 | 12.22° C | 67% | 1020.9 hPa | 0 mm | 0 m/s | 0 W/m² | - |
| 1778044538 | 12.22° C | 88% | 1008.2 hPa | 0 mm | 0 m/s | 0 W/m² | - |
| 1778044235 | 12.78° C | 88% | 1007.9 hPa | 0 mm | 0.45 m/s, 357° | 0 W/m² | - |
| 1778043933 | 12.22° C | 88% | 1008.4 hPa | 0 mm | 0 m/s | 0 W/m² | - |
| 1778043630 | 12.78° C | 87% | 1008.1 hPa | 0 mm | 0 m/s | 0 W/m² | - |
| 1778043326 | 12.78° C | 87% | 1008 hPa | 0 mm | 0 m/s | 0 W/m² | - |
| 1778043023 | 12.22° C | 88% | 1008.1 hPa | 0 mm | 0.45 m/s, 345° | 0 W/m² | - |
| 1778042721 | 12.22° C | 88% | 1008.2 hPa | 0 mm | 0 m/s | 0 W/m² | - |
| 1778042418 | 12.22° C | 87% | 1008.1 hPa | 0 mm | 0 m/s | 0 W/m² | - |
| 1778042115 | 12.78° C | 87% | 1008 hPa | 0 mm | 0 m/s | 0 W/m² | - |
| 1778041813 | 12.78° C | 86% | 1008 hPa | 0 mm | 0 m/s | 0 W/m² | - |
| 1778041512 | 12.78° C | 87% | 1008 hPa | 0 mm | 0 m/s | 0 W/m² | - |
| 1778041210 | 12.78° C | 86% | 1008.1 hPa | 0 mm | 0 m/s | 0 W/m² | - |
| 1778040908 | 12.78° C | 85% | 1008.1 hPa | 0 mm | 0 m/s | 0 W/m² | - |
| 1778040605 | 13.33° C | 86% | 1007.9 hPa | 0 mm | 0 m/s | 0 W/m² | - |
| 1778040302 | 13.33° C | 84% | 1008.1 hPa | 0 mm | 0 m/s | 0 W/m² | - |
| 1778039998 | 13.89° C | 83% | 1008.2 hPa | 0 mm | 0.45 m/s, 211° | 0 W/m² | - |
| 1778039695 | 13.89° C | 83% | 1008.2 hPa | 0 mm | 0 m/s | 0 W/m² | - |
| 1778039391 | 13.89° C | 82% | 1008.2 hPa | 0 mm | 0 m/s | 0 W/m² | - |
| 1778039089 | 13.89° C | 82% | 1008 hPa | 0 mm | 0.45 m/s, 321° | 0 W/m² | - |
| 1778038786 | 14.44° C | 83% | 1007.9 hPa | 0 mm | 0 m/s | 0 W/m² | - |
* Rain latest hour (hover to see other rain measurements)
** Current wind speed in m/s (hover to see current wind gust speed)